Saturday, November 18, 2017, 9:36 PM GMT
Back to Local

CYPQ, Peterborough Airport

Location: , , Canada Lat: 44.233
Local Time: 9:36 PM GMT (21:36 GMT) Lon: -78.367
Time Zone: GMT Elev: 626 ft

Show me the last for .
Show Decoded

2017-11-18 21:00 METAR CYPQ 182100Z AUTO 04004KT 1 1/4SM -RA BR OVC002 04/04 A2936 RMK SLP950 =
2017-11-18 20:00 METAR CYPQ 182000Z AUTO 06003KT 1 1/4SM -RA BR OVC002 04/04 A2938 RMK SLP957 =
2017-11-18 19:57 METAR CYPQ 181957Z AUTO 06003KT 1 1/4SM -RA BR OVC002 04/04 A2938 RMK SLP958 =
2017-11-18 19:00 METAR CYPQ 181900Z AUTO 05003KT 1 1/2SM -RA BR OVC004 04/04 A2943 RMK PRESFR
                 SLP972 =
2017-11-18 18:00 METAR CYPQ 181800Z AUTO 05003KT 1 1/2SM -RA BR OVC004 04/04 A2945 RMK SLP982 =
2017-11-18 17:36 METAR CYPQ 181736Z AUTO 04003KT 2SM -RA BR OVC004 04/04 A2946 RMK SLP984 =
2017-11-18 17:29 METAR CYPQ 181729Z AUTO 05004KT 2 1/2SM -RA BR OVC004 03/03 A2946 RMK SLP985 =
2017-11-18 17:09 METAR CYPQ 181709Z AUTO VRB02KT 2 1/2SM BR OVC004 03/03 A2948 RMK SLP991 =
2017-11-18 17:08 METAR CYPQ 181708Z AUTO VRB02KT 2 1/2SM BR OVC006 03/03 A2948 RMK SLP992 =
2017-11-18 17:00 METAR CYPQ 181700Z AUTO 04004KT 3SM BR OVC006 04/03 A2947 RMK SLP989 =
2017-11-18 16:48 METAR CYPQ 181648Z AUTO 07003KT 040V110 4SM BR OVC006 03/03 A2947 RMK SLP989 =
2017-11-18 16:35 METAR CYPQ 181635Z AUTO 07003KT 030V090 5SM BR BKN008 OVC017 03/03 A2948 RMK
                 PRESFR SLP991 =
2017-11-18 16:00 METAR CYPQ 181600Z AUTO 05004KT 020V160 9SM SCT017 OVC024 03/02 A2952 RMK SLP006
                 =
2017-11-18 15:54 METAR CYPQ 181554Z AUTO VRB03KT 9SM BKN022 OVC027 03/02 A2953 RMK SLP008 =
2017-11-18 15:16 METAR CYPQ 181516Z AUTO 04004KT 020V100 9SM BKN025 OVC034 03/02 A2954 RMK PRESFR
                 SLP013 =
2017-11-18 15:00 METAR CYPQ 181500Z AUTO 10003KT 060V180 7SM BKN023 OVC029 02/02 A2957 RMK SLP021
                 =
2017-11-18 14:58 METAR CYPQ 181458Z AUTO 07003KT 060V180 7SM BKN023 OVC029 02/02 A2957 RMK SLP021
                 =
2017-11-18 14:55 METAR CYPQ 181455Z AUTO VRB02KT 9SM OVC025 02/02 A2957 RMK SLP022 =
2017-11-18 14:54 METAR CYPQ 181454Z AUTO VRB02KT 9SM BKN023 OVC029 02/02 A2957 RMK SLP023 =
2017-11-18 14:00 METAR CYPQ 181400Z AUTO 07003KT 9SM OVC033 02/02 A2956 RMK SLP019 =
2017-11-18 13:02 METAR CYPQ 181302Z AUTO 02005KT 9SM BKN030 OVC055 01/01 A2960 RMK SLP033 =
2017-11-18 13:00 METAR CYPQ 181300Z AUTO 01004KT 9SM -RA BKN030 BKN049 OVC060 01/01 A2960 RMK
                 SLP034 =
2017-11-18 12:43 METAR CYPQ 181243Z AUTO 03003KT 9SM -RA OVC055 01/01 A2961 RMK SLP035 =
2017-11-18 12:37 METAR CYPQ 181237Z AUTO 02002KT 9SM -RA -UP OVC060 01/01 A2961 RMK SLP036 =
2017-11-18 12:32 METAR CYPQ 181232Z AUTO 02003KT 6SM -UP BR OVC060 01/01 A2961 RMK SLP036 =
2017-11-18 12:26 METAR CYPQ 181226Z AUTO 03003KT 6SM -RA -UP BR OVC060 01/01 A2961 RMK SLP036 =
2017-11-18 12:10 METAR CYPQ 181210Z AUTO 05004KT 7SM -RA OVC060 01/01 A2961 RMK PRESFR SLP035 =
2017-11-18 12:00 METAR CYPQ 181200Z AUTO 06003KT 7SM -RA -UP OVC060 01/01 A2962 RMK PCPN 0.5MM
                 PAST HR SLP040 =
2017-11-18 11:57 METAR CYPQ 181157Z AUTO 06002KT 7SM -RA -UP OVC055 01/01 A2962 RMK SLP040 =
2017-11-18 11:23 METAR CYPQ 181123Z AUTO 06005KT 9SM -RA SCT060 BKN078 OVC095 01/M00 A2965 RMK
                 PRESFR SLP048 =
2017-11-18 11:00 METAR CYPQ 181100Z AUTO 03005KT 9SM BKN100 OVC130 01/M00 A2966 RMK SLP052 =
2017-11-18 10:00 METAR CYPQ 181000Z AUTO 07004KT 9SM SCT120 BKN140 OVC160 01/M01 A2969 RMK SLP062
                 =
2017-11-18 09:00 METAR CYPQ 180900Z AUTO 02005KT 9SM OVC100 00/M01 A2974 RMK SLP079 =
2017-11-18 08:00 METAR CYPQ 180800Z AUTO 02005KT 9SM BKN110 OVC140 M01/M02 A2976 RMK SLP086 =
2017-11-18 07:00 METAR CYPQ 180700Z AUTO 07005KT 9SM BKN110 OVC150 M00/M01 A2979 RMK SLP098 =
2017-11-18 06:00 METAR CYPQ 180600Z AUTO 08003KT 9SM FEW100 OVC120 M00/M01 A2984 RMK PRESFR
                 SLP116 =
2017-11-18 05:00 METAR CYPQ 180500Z AUTO 07004KT 9SM OVC120 M01/M02 A2989 RMK PRESFR SLP132 =
2017-11-18 04:00 METAR CYPQ 180400Z AUTO 07003KT 9SM OVC140 M01/M02 A2993 RMK SLP145 =
2017-11-18 03:00 METAR CYPQ 180300Z AUTO VRB02KT 9SM OVC110 M01/M03 A2997 RMK SLP160 =
2017-11-18 02:00 METAR CYPQ 180200Z AUTO 12003KT 090V150 9SM BKN110 OVC130 M01/M03 A2999 RMK
                 SLP166 =
2017-11-18 01:00 METAR CYPQ 180100Z AUTO 14002KT 9SM OVC120 M01/M03 A3003 RMK SLP180 =
2017-11-18 00:00 METAR CYPQ 180000Z AUTO 15003KT 9SM BKN120 M02/M04 A3005 RMK SLP190 =
2017-11-17 23:00 METAR CYPQ 172300Z AUTO 18005KT 9SM BKN130 M01/M04 A3007 RMK SLP194 =
2017-11-17 22:00 METAR CYPQ 172200Z AUTO 18007KT 9SM BKN130 OVC150 00/M05 A3009 RMK SLP202 =

Support USWX by starting your Amazon purchase here.